Time,TemperatureF,DewpointF,PressureIn,WindDirection,WindDirectionDegrees,WindSpeedMPH,WindSpeedGustMPH,Humidity,HourlyPrecipIn,Conditions,Clouds,dailyrainin,SoftwareType,DateUTC
2013-04-28 00:00:00,41.1,32.0,30.39,SSE,159,4.9,6.0,70,0.00,,,0.00,VWS V14.00,2013-04-28 04:00:00,
2013-04-28 00:01:00,43.9,27.7,30.28,South,169,4.8,8.1,53,0.00,,,0.00,VWS V14.00,2013-04-28 04:01:00,
2013-04-28 00:02:00,43.3,26.9,30.27,South,176,5.5,8.8,52,0.00,,,0.00,VWS V14.00,2013-04-28 04:02:00,
2013-04-28 00:04:00,43.9,27.6,30.28,South,174,4.8,8.1,52,0.00,,,0.00,VWS V14.00,2013-04-28 04:04:00,
2013-04-28 00:05:00,43.2,26.8,30.27,South,180,4.3,8.8,52,0.00,,,0.00,VWS V14.00,2013-04-28 04:05:00,
2013-04-28 00:06:00,43.9,27.7,30.28,SE,128,0.0,8.1,52,0.00,,,0.00,VWS V14.00,2013-04-28 04:06:00,
2013-04-28 00:07:00,44.0,27.8,30.28,SE,128,0.0,0.0,52,0.00,,,0.00,VWS V14.00,2013-04-28 04:07:00,
2013-04-28 00:08:00,43.2,26.8,30.27,SSE,149,5.0,8.8,52,0.00,,,0.00,VWS V14.00,2013-04-28 04:08:00,
2013-04-28 00:10:00,40.5,32.1,30.39,SSE,160,4.5,7.3,72,0.00,,,0.00,VWS V14.00,2013-04-28 04:10:00,
2013-04-28 00:11:00,43.2,26.8,30.27,South,173,5.0,8.8,52,0.00,,,0.00,VWS V14.00,2013-04-28 04:11:00,
2013-04-28 00:13:00,43.9,27.9,30.28,SSE,162,5.0,8.3,53,0.00,,,0.00,VWS V14.00,2013-04-28 04:13:00,
2013-04-28 00:14:00,43.2,26.9,30.27,SSE,153,3.2,8.8,52,0.00,,,0.00,VWS V14.00,2013-04-28 04:14:00,
2013-04-28 00:17:00,43.1,26.8,30.27,South,169,3.4,8.8,52,0.00,,,0.00,VWS V14.00,2013-04-28 04:17:00,
2013-04-28 00:19:00,43.8,28.0,30.28,SSE,158,6.8,8.1,54,0.00,,,0.00,VWS V14.00,2013-04-28 04:19:00,
2013-04-28 00:20:00,43.2,26.9,30.27,South,169,4.8,8.8,52,0.00,,,0.00,VWS V14.00,2013-04-28 04:20:00,
2013-04-28 00:23:00,43.1,26.9,30.27,SSE,155,3.5,8.8,52,0.00,,,0.00,VWS V14.00,2013-04-28 04:23:00,
2013-04-28 00:25:00,43.9,27.6,30.28,SSE,163,5.7,9.5,52,0.00,,,0.00,VWS V14.00,2013-04-28 04:25:00,
2013-04-28 00:26:00,43.1,27.0,30.27,South,177,3.0,8.8,53,0.00,,,0.00,VWS V14.00,2013-04-28 04:26:00,
2013-04-28 00:29:00,43.1,26.9,30.26,SSE,166,7.3,8.8,52,0.00,,,0.00,VWS V14.00,2013-04-28 04:29:00,
2013-04-28 00:30:00,39.8,31.9,30.39,SSE,158,4.6,5.2,73,0.00,,,0.00,VWS V14.00,2013-04-28 04:30:00,
2013-04-28 00:31:00,44.1,27.3,30.27,SSE,162,5.2,8.9,51,0.00,,,0.00,VWS V14.00,2013-04-28 04:31:00,
2013-04-28 00:32:00,43.1,26.8,30.26,SSE,165,6.3,8.8,52,0.00,,,0.00,VWS V14.00,2013-04-28 04:32:00,
2013-04-28 00:35:00,43.1,26.8,30.26,South,179,5.3,9.5,52,0.00,,,0.00,VWS V14.00,2013-04-28 04:35:00,
2013-04-28 00:37:00,43.9,27.5,30.27,SSE,148,7.4,7.4,52,0.00,,,0.00,VWS V14.00,2013-04-28 04:37:00,
2013-04-28 00:38:00,43.2,26.9,30.26,SSE,155,7.7,9.5,52,0.00,,,0.00,VWS V14.00,2013-04-28 04:38:00,
2013-04-28 00:40:00,39.8,32.1,30.39,SSE,165,4.7,6.0,74,0.00,,,0.00,VWS V14.00,2013-04-28 04:40:00,
2013-04-28 00:41:00,43.2,26.9,30.26,SSE,156,5.0,9.5,52,0.00,,,0.00,VWS V14.00,2013-04-28 04:41:00,
2013-04-28 00:43:00,43.6,27.5,30.27,South,172,9.2,9.8,53,0.00,,,0.00,VWS V14.00,2013-04-28 04:43:00,
2013-04-28 00:44:00,43.2,27.0,30.26,South,174,3.5,9.5,52,0.00,,,0.00,VWS V14.00,2013-04-28 04:44:00,
2013-04-28 00:47:00,43.0,26.8,30.26,SSE,152,5.6,9.5,52,0.00,,,0.00,VWS V14.00,2013-04-28 04:47:00,
2013-04-28 00:49:00,43.6,27.3,30.27,SSE,162,5.3,8.8,52,0.00,,,0.00,VWS V14.00,2013-04-28 04:49:00,
2013-04-28 00:50:00,43.1,26.9,30.26,SSE,160,5.0,9.5,52,0.00,,,0.00,VWS V14.00,2013-04-28 04:50:00,
2013-04-28 00:53:00,43.0,27.0,30.26,SSE,159,10.3,10.3,53,0.00,,,0.00,VWS V14.00,2013-04-28 04:53:00,
2013-04-28 00:55:00,43.3,27.0,30.27,South,170,7.2,8.8,52,0.00,,,0.00,VWS V14.00,2013-04-28 04:55:00,
2013-04-28 00:56:00,43.0,27.1,30.26,SSE,148,3.2,10.3,53,0.00,,,0.00,VWS V14.00,2013-04-28 04:56:00,
2013-04-28 00:59:00,42.9,27.1,30.26,SSE,162,4.8,10.3,53,0.00,,,0.00,VWS V14.00,2013-04-28 04:59:00,
2013-04-28 01:02:00,43.0,27.1,30.26,SE,129,2.2,10.3,53,0.00,,,0.00,VWS V14.00,2013-04-28 05:02:00,
2013-04-28 01:05:00,42.8,26.8,30.26,SSE,158,5.2,10.3,53,0.00,,,0.00,VWS V14.00,2013-04-28 05:05:00,
2013-04-28 01:08:00,42.9,26.9,30.26,SSE,166,5.7,10.3,53,0.00,,,0.00,VWS V14.00,2013-04-28 05:08:00,
2013-04-28 01:11:00,42.9,26.9,30.26,SE,139,4.2,10.3,53,0.00,,,0.00,VWS V14.00,2013-04-28 05:11:00,
2013-04-28 01:14:00,43.0,27.0,30.26,SE,131,3.0,10.3,53,0.00,,,0.00,VWS V14.00,2013-04-28 05:14:00,
2013-04-28 01:17:00,42.9,26.9,30.26,SSE,153,4.5,10.3,53,0.00,,,0.00,VWS V14.00,2013-04-28 05:17:00,
2013-04-28 01:20:00,42.8,26.8,30.26,SSE,162,3.0,10.3,53,0.00,,,0.00,VWS V14.00,2013-04-28 05:20:00,
2013-04-28 01:23:00,42.8,27.0,30.26,SSE,158,5.2,10.3,53,0.00,,,0.00,VWS V14.00,2013-04-28 05:23:00,
2013-04-28 01:27:00,42.8,26.9,30.26,SSE,153,3.4,10.3,53,0.00,,,0.00,VWS V14.00,2013-04-28 05:27:00,
2013-04-28 01:30:00,42.7,26.7,30.26,SSE,166,3.4,10.3,53,0.00,,,0.00,VWS V14.00,2013-04-28 05:30:00,
2013-04-28 01:33:00,42.9,26.7,30.25,SSE,162,7.3,10.3,52,0.00,,,0.00,VWS V14.00,2013-04-28 05:33:00,
2013-04-28 01:36:00,42.9,26.7,30.25,South,169,6.7,10.3,52,0.00,,,0.00,VWS V14.00,2013-04-28 05:36:00,
2013-04-28 01:39:00,42.8,26.7,30.25,SSE,159,9.5,10.3,53,0.00,,,0.00,VWS V14.00,2013-04-28 05:39:00,
2013-04-28 01:42:00,42.8,26.7,30.25,SSE,158,5.8,10.3,53,0.00,,,0.00,VWS V14.00,2013-04-28 05:42:00,
2013-04-28 01:45:00,42.6,26.6,30.25,SSE,165,6.4,10.3,53,0.00,,,0.00,VWS V14.00,2013-04-28 05:45:00,
2013-04-28 01:48:00,42.8,26.8,30.25,SSE,159,6.3,10.3,53,0.00,,,0.00,VWS V14.00,2013-04-28 05:48:00,
2013-04-28 01:51:00,42.7,26.6,30.25,SSE,163,4.7,10.3,53,0.00,,,0.00,VWS V14.00,2013-04-28 05:51:00,
2013-04-28 01:54:00,42.8,26.7,30.25,SSE,158,5.0,10.6,53,0.00,,,0.00,VWS V14.00,2013-04-28 05:54:00,
2013-04-28 01:57:00,42.8,26.8,30.25,SSE,152,4.5,10.6,53,0.00,,,0.00,VWS V14.00,2013-04-28 05:57:00,
2013-04-28 02:00:00,42.8,26.7,30.25,SSE,158,5.0,10.6,53,0.00,,,0.00,VWS V14.00,2013-04-28 06:00:00,
2013-04-28 02:03:00,42.7,26.5,30.25,SE,142,4.1,10.6,52,0.00,,,0.00,VWS V14.00,2013-04-28 06:03:00,
2013-04-28 02:06:00,42.7,26.4,30.25,SE,143,5.1,10.6,52,0.00,,,0.00,VWS V14.00,2013-04-28 06:06:00,
2013-04-28 02:09:00,42.8,26.4,30.24,SSE,158,4.3,10.6,52,0.00,,,0.00,VWS V14.00,2013-04-28 06:09:00,
2013-04-28 02:12:00,42.7,26.2,30.25,SSE,165,6.3,10.6,52,0.00,,,0.00,VWS V14.00,2013-04-28 06:12:00,
2013-04-28 02:15:00,42.9,26.3,30.25,SSE,166,6.3,10.6,52,0.00,,,0.00,VWS V14.00,2013-04-28 06:15:00,
2013-04-28 02:18:00,42.9,26.2,30.25,SE,146,4.8,10.6,51,0.00,,,0.00,VWS V14.00,2013-04-28 06:18:00,
2013-04-28 02:21:00,42.9,26.0,30.25,SE,132,2.6,10.6,51,0.00,,,0.00,VWS V14.00,2013-04-28 06:21:00,
2013-04-28 02:24:00,42.9,26.0,30.25,SE,143,4.5,10.6,51,0.00,,,0.00,VWS V14.00,2013-04-28 06:24:00,
2013-04-28 02:27:00,42.8,25.7,30.25,SSE,148,3.2,10.6,50,0.00,,,0.00,VWS V14.00,2013-04-28 06:27:00,
2013-04-28 02:30:00,42.8,25.6,30.25,SSE,163,3.1,10.6,50,0.00,,,0.00,VWS V14.00,2013-04-28 06:30:00,
2013-04-28 02:33:00,42.9,25.6,30.25,SE,141,4.7,10.6,50,0.00,,,0.00,VWS V14.00,2013-04-28 06:33:00,
2013-04-28 02:36:00,42.9,25.8,30.24,SSE,152,5.7,10.6,50,0.00,,,0.00,VWS V14.00,2013-04-28 06:36:00,
2013-04-28 02:39:00,42.8,25.7,30.24,SSE,148,4.7,10.6,50,0.00,,,0.00,VWS V14.00,2013-04-28 06:39:00,
2013-04-28 02:42:00,42.8,25.6,30.24,SSE,153,5.5,10.6,50,0.00,,,0.00,VWS V14.00,2013-04-28 06:42:00,
2013-04-28 02:45:00,43.0,25.6,30.24,SE,125,3.2,10.6,50,0.00,,,0.00,VWS V14.00,2013-04-28 06:45:00,
2013-04-28 02:48:00,43.0,25.4,30.24,SE,136,3.0,10.6,50,0.00,,,0.00,VWS V14.00,2013-04-28 06:48:00,
2013-04-28 02:51:00,43.0,25.5,30.25,SE,135,3.5,10.6,50,0.00,,,0.00,VWS V14.00,2013-04-28 06:51:00,
2013-04-28 02:54:00,43.0,25.7,30.24,SSE,156,5.9,10.6,50,0.00,,,0.00,VWS V14.00,2013-04-28 06:54:00,
2013-04-28 02:57:00,42.9,25.6,30.24,SSE,158,4.6,10.6,50,0.00,,,0.00,VWS V14.00,2013-04-28 06:57:00,
2013-04-28 03:00:00,42.8,25.6,30.24,SSE,152,6.6,10.6,50,0.00,,,0.00,VWS V14.00,2013-04-28 07:00:00,
2013-04-28 03:03:00,42.8,25.8,30.24,SSE,149,4.4,10.6,51,0.00,,,0.00,VWS V14.00,2013-04-28 07:03:00,
2013-04-28 03:06:00,42.6,25.8,30.24,SSE,162,4.8,10.6,51,0.00,,,0.00,VWS V14.00,2013-04-28 07:06:00,
2013-04-28 03:09:00,42.6,25.9,30.23,SE,138,6.1,10.6,51,0.00,,,0.00,VWS V14.00,2013-04-28 07:09:00,
2013-04-28 03:12:00,42.6,26.0,30.23,SSE,160,5.8,10.6,52,0.00,,,0.00,VWS V14.00,2013-04-28 07:12:00,
2013-04-28 03:15:00,42.6,26.1,30.23,SSE,156,4.5,10.6,52,0.00,,,0.00,VWS V14.00,2013-04-28 07:15:00,
2013-04-28 03:18:00,42.5,26.0,30.23,SSE,152,3.1,10.6,52,0.00,,,0.00,VWS V14.00,2013-04-28 07:18:00,
2013-04-28 03:21:00,42.6,26.1,30.23,SSE,155,4.2,10.6,52,0.00,,,0.00,VWS V14.00,2013-04-28 07:21:00,
2013-04-28 03:24:00,42.6,26.3,30.23,SSE,149,6.1,10.6,52,0.00,,,0.00,VWS V14.00,2013-04-28 07:24:00,
2013-04-28 03:27:00,42.6,26.5,30.23,SSE,153,5.0,10.6,52,0.00,,,0.00,VWS V14.00,2013-04-28 07:27:00,
2013-04-28 03:30:00,42.7,26.6,30.23,SSE,166,5.5,10.6,53,0.00,,,0.00,VWS V14.00,2013-04-28 07:30:00,
2013-04-28 03:33:00,42.7,26.7,30.23,SSE,167,5.6,10.6,53,0.00,,,0.00,VWS V14.00,2013-04-28 07:33:00,
2013-04-28 03:36:00,42.6,26.6,30.23,SSE,156,5.9,10.6,53,0.00,,,0.00,VWS V14.00,2013-04-28 07:36:00,
2013-04-28 03:39:00,42.7,26.8,30.23,SE,146,4.3,10.6,53,0.00,,,0.00,VWS V14.00,2013-04-28 07:39:00,
2013-04-28 03:42:00,42.6,26.7,30.23,SE,146,5.1,10.6,53,0.00,,,0.00,VWS V14.00,2013-04-28 07:42:00,
2013-04-28 03:45:00,42.7,26.9,30.23,SE,139,0.0,10.6,53,0.00,,,0.00,VWS V14.00,2013-04-28 07:45:00,
2013-04-28 03:48:00,42.7,27.0,30.23,SE,132,0.0,10.6,53,0.00,,,0.00,VWS V14.00,2013-04-28 07:48:00,
2013-04-28 03:51:00,42.7,27.0,30.23,SSE,163,4.3,10.6,53,0.00,,,0.00,VWS V14.00,2013-04-28 07:51:00,
2013-04-28 03:54:00,42.7,27.0,30.23,SSE,158,4.3,10.6,54,0.00,,,0.00,VWS V14.00,2013-04-28 07:54:00,
2013-04-28 03:57:00,42.6,27.0,30.23,SSE,148,0.0,10.6,54,0.00,,,0.00,VWS V14.00,2013-04-28 07:57:00,
2013-04-28 04:00:00,42.6,27.0,30.23,SE,146,0.0,10.6,54,0.00,,,0.00,VWS V14.00,2013-04-28 08:00:00,
2013-04-28 04:03:00,42.7,27.3,30.23,ESE,112,0.0,10.6,54,0.00,,,0.00,VWS V14.00,2013-04-28 08:03:00,
2013-04-28 04:06:00,42.5,27.3,30.23,SE,145,0.0,10.6,55,0.00,,,0.00,VWS V14.00,2013-04-28 08:06:00,
2013-04-28 04:09:00,42.6,27.5,30.23,SE,145,0.0,10.6,55,0.00,,,0.00,VWS V14.00,2013-04-28 08:09:00,
2013-04-28 04:12:00,42.4,27.5,30.23,SE,145,0.0,10.6,55,0.00,,,0.00,VWS V14.00,2013-04-28 08:12:00,
2013-04-28 04:15:00,42.5,27.7,30.23,SE,145,0.0,10.6,55,0.00,,,0.00,VWS V14.00,2013-04-28 08:15:00,
2013-04-28 04:18:00,42.4,27.7,30.23,SE,145,0.0,10.6,56,0.00,,,0.00,VWS V14.00,2013-04-28 08:18:00,
2013-04-28 04:21:00,42.4,28.0,30.23,SE,145,0.0,10.6,56,0.00,,,0.00,VWS V14.00,2013-04-28 08:21:00,
2013-04-28 04:37:00,41.7,28.3,30.23,SE,129,0.0,10.6,59,0.00,,,0.00,VWS V14.00,2013-04-28 08:37:00,
2013-04-28 04:43:00,41.8,28.4,30.23,SE,129,0.0,10.6,59,0.00,,,0.00,VWS V14.00,2013-04-28 08:43:00,
2013-04-28 04:49:00,41.7,28.4,30.23,SE,129,0.0,10.6,59,0.00,,,0.00,VWS V14.00,2013-04-28 08:49:00,
2013-04-28 04:58:00,41.6,28.4,30.23,SE,129,0.0,10.6,59,0.00,,,0.00,VWS V14.00,2013-04-28 08:58:00,
2013-04-28 05:01:00,41.7,28.6,30.23,SE,129,0.0,10.6,59,0.00,,,0.00,VWS V14.00,2013-04-28 09:01:00,
2013-04-28 05:04:00,41.7,28.6,30.23,SSE,155,3.1,10.6,59,0.00,,,0.00,VWS V14.00,2013-04-28 09:04:00,
2013-04-28 05:19:00,41.9,29.0,30.23,SSE,150,0.0,10.6,60,0.00,,,0.00,VWS V14.00,2013-04-28 09:19:00,
2013-04-28 05:21:00,42.2,28.1,30.23,SE,145,0.0,10.6,57,0.00,,,0.00,VWS V14.00,2013-04-28 09:21:00,
2013-04-28 05:25:00,42.0,28.7,30.23,ESE,120,0.0,10.6,59,0.00,,,0.00,VWS V14.00,2013-04-28 09:25:00,
2013-04-28 05:27:00,42.0,28.3,30.23,SSE,152,0.0,10.6,58,0.00,,,0.00,VWS V14.00,2013-04-28 09:27:00,
2013-04-28 05:36:00,41.8,28.5,30.23,SE,129,0.0,10.6,59,0.00,,,0.00,VWS V14.00,2013-04-28 09:36:00,
2013-04-28 05:42:00,41.7,28.4,30.23,SE,129,0.0,10.6,59,0.00,,,0.00,VWS V14.00,2013-04-28 09:42:00,
2013-04-28 05:48:00,41.8,28.5,30.23,SE,129,0.0,10.6,59,0.00,,,0.00,VWS V14.00,2013-04-28 09:48:00,
2013-04-28 06:03:00,41.7,28.6,30.23,SE,143,0.0,10.6,59,0.00,,,0.00,VWS V14.00,2013-04-28 10:03:00,
2013-04-28 06:04:00,42.9,28.9,30.24,ESE,120,0.0,10.6,57,0.00,,,0.00,VWS V14.00,2013-04-28 10:04:00,
2013-04-28 06:07:00,43.1,29.2,30.24,ESE,120,0.0,10.6,58,0.00,,,0.00,VWS V14.00,2013-04-28 10:07:00,
2013-04-28 06:09:00,41.7,28.9,30.23,SSE,150,5.8,10.6,60,0.00,,,0.00,VWS V14.00,2013-04-28 10:09:00,
2013-04-28 06:18:00,41.9,28.8,30.23,SSE,150,0.0,10.6,59,0.00,,,0.00,VWS V14.00,2013-04-28 10:18:00,
2013-04-28 06:24:00,42.1,28.6,30.23,ESE,120,0.0,10.6,59,0.00,,,0.00,VWS V14.00,2013-04-28 10:24:00,
2013-04-28 06:30:00,42.4,28.7,30.23,ESE,120,0.0,10.6,58,0.00,,,0.00,VWS V14.00,2013-04-28 10:30:00,
2013-04-28 06:36:00,42.5,28.6,30.23,ESE,120,0.0,10.6,58,0.00,,,0.00,VWS V14.00,2013-04-28 10:36:00,
2013-04-28 06:37:00,44.6,31.0,30.26,ESE,111,0.0,10.6,59,0.00,,,0.00,VWS V14.00,2013-04-28 10:37:00,
2013-04-28 06:42:00,42.6,28.7,30.23,ESE,120,0.0,10.6,58,0.00,,,0.00,VWS V14.00,2013-04-28 10:42:00,
2013-04-28 06:48:00,42.7,29.0,30.24,ESE,120,0.0,10.6,58,0.00,,,0.00,VWS V14.00,2013-04-28 10:48:00,
2013-04-28 06:54:00,42.7,28.7,30.24,ESE,120,0.0,10.6,57,0.00,,,0.00,VWS V14.00,2013-04-28 10:54:00,
2013-04-28 06:55:00,46.3,31.4,30.26,ESE,111,0.0,10.6,56,0.00,,,0.00,VWS V14.00,2013-04-28 10:55:00,
2013-04-28 07:06:00,43.0,29.2,30.24,ESE,120,0.0,10.6,58,0.00,,,0.00,VWS V14.00,2013-04-28 11:06:00,
2013-04-28 07:12:00,43.2,30.1,30.25,ESE,120,0.0,10.6,60,0.00,,,0.00,VWS V14.00,2013-04-28 11:12:00,
2013-04-28 07:18:00,43.4,30.3,30.25,ESE,111,0.0,10.6,60,0.00,,,0.00,VWS V14.00,2013-04-28 11:18:00,
2013-04-28 07:24:00,43.6,30.3,30.25,ESE,111,0.0,10.6,59,0.00,,,0.00,VWS V14.00,2013-04-28 11:24:00,
2013-04-28 07:28:00,49.4,30.9,30.27,NNW,336,0.0,10.6,49,0.00,,,0.00,VWS V14.00,2013-04-28 11:28:00,
2013-04-28 07:30:00,44.2,30.9,30.25,ESE,111,0.0,10.6,59,0.00,,,0.00,VWS V14.00,2013-04-28 11:30:00,
2013-04-28 07:36:00,44.9,30.9,30.26,ESE,111,0.0,10.6,58,0.00,,,0.00,VWS V14.00,2013-04-28 11:36:00,
2013-04-28 07:42:00,45.5,31.0,30.26,ESE,111,0.0,10.6,57,0.00,,,0.00,VWS V14.00,2013-04-28 11:42:00,
2013-04-28 07:48:00,46.0,31.1,30.26,ESE,111,0.0,10.6,56,0.00,,,0.00,VWS V14.00,2013-04-28 11:48:00,
2013-04-28 07:54:00,46.8,31.9,30.26,ESE,111,0.0,10.6,56,0.00,,,0.00,VWS V14.00,2013-04-28 11:54:00,
2013-04-28 08:00:00,47.2,30.7,30.26,ESE,111,0.0,10.6,52,0.00,,,0.00,VWS V14.00,2013-04-28 12:00:00,
2013-04-28 08:06:00,47.5,30.8,30.26,ESE,111,0.0,10.6,52,0.00,,,0.00,VWS V14.00,2013-04-28 12:06:00,
2013-04-28 08:13:00,48.1,30.7,30.26,ESE,111,0.0,10.6,51,0.00,,,0.00,VWS V14.00,2013-04-28 12:13:00,
2013-04-28 08:19:00,48.7,30.4,30.27,NNW,336,0.0,10.6,49,0.00,,,0.00,VWS V14.00,2013-04-28 12:19:00,
2013-04-28 08:28:00,49.6,30.9,30.27,NNW,336,0.0,10.6,48,0.00,,,0.00,VWS V14.00,2013-04-28 12:28:00,
2013-04-28 08:34:00,50.2,30.7,30.27,NNW,336,0.0,10.6,47,0.00,,,0.00,VWS V14.00,2013-04-28 12:34:00,
2013-04-28 08:40:00,51.4,31.0,30.27,NNW,336,0.0,10.6,45,0.00,,,0.00,VWS V14.00,2013-04-28 12:40:00,
2013-04-28 08:46:00,52.3,30.4,30.27,NNW,336,0.0,10.6,43,0.00,,,0.00,VWS V14.00,2013-04-28 12:46:00,
2013-04-28 08:52:00,53.4,30.4,30.27,NNW,336,0.0,10.6,41,0.00,,,0.00,VWS V14.00,2013-04-28 12:52:00,
2013-04-28 08:58:00,54.6,30.4,30.27,NNW,336,0.0,10.6,39,0.00,,,0.00,VWS V14.00,2013-04-28 12:58:00,
2013-04-28 09:04:00,56.0,31.4,30.27,NNW,336,0.0,10.6,39,0.00,,,0.00,VWS V14.00,2013-04-28 13:04:00,
2013-04-28 09:10:00,57.1,31.2,30.26,North,7,0.0,10.6,37,0.00,,,0.00,VWS V14.00,2013-04-28 13:10:00,
2013-04-28 09:16:00,58.1,30.5,30.26,NNE,15,0.0,10.6,35,0.00,,,0.00,VWS V14.00,2013-04-28 13:16:00,
2013-04-28 09:22:00,59.2,30.2,30.26,East,90,0.0,10.6,33,0.00,,,0.00,VWS V14.00,2013-04-28 13:22:00,
2013-04-28 09:28:00,59.9,29.6,30.26,NNE,25,0.0,10.6,32,0.00,,,0.00,VWS V14.00,2013-04-28 13:28:00,
2013-04-28 09:34:00,60.9,29.3,30.26,East,84,0.0,10.6,30,0.00,,,0.00,VWS V14.00,2013-04-28 13:34:00,
2013-04-28 09:40:00,61.6,28.4,30.26,North,357,3.2,10.6,28,0.00,,,0.00,VWS V14.00,2013-04-28 13:40:00,
2013-04-28 09:46:00,62.4,28.5,30.26,NNE,15,0.0,10.6,28,0.00,,,0.00,VWS V14.00,2013-04-28 13:46:00,
2013-04-28 09:52:00,62.9,28.2,30.26,NE,34,4.2,10.6,27,0.00,,,0.00,VWS V14.00,2013-04-28 13:52:00,
2013-04-28 09:58:00,63.4,28.6,30.26,NNE,20,3.4,10.6,27,0.00,,,0.00,VWS V14.00,2013-04-28 13:58:00,
2013-04-28 10:04:00,63.8,28.7,30.26,North,353,0.0,10.6,26,0.00,,,0.00,VWS V14.00,2013-04-28 14:04:00,
2013-04-28 10:10:00,64.3,28.1,30.26,North,353,0.0,10.6,25,0.00,,,0.00,VWS V14.00,2013-04-28 14:10:00,
2013-04-28 10:16:00,64.8,29.2,30.26,North,4,4.5,10.6,26,0.00,,,0.00,VWS V14.00,2013-04-28 14:16:00,
2013-04-28 10:22:00,65.4,30.1,30.26,North,7,0.0,10.6,26,0.00,,,0.00,VWS V14.00,2013-04-28 14:22:00,
2013-04-28 10:28:00,66.2,30.3,30.26,NNE,18,6.7,10.6,26,0.00,,,0.00,VWS V14.00,2013-04-28 14:28:00,
2013-04-28 10:34:00,66.8,29.7,30.26,North,353,2.9,10.6,25,0.00,,,0.00,VWS V14.00,2013-04-28 14:34:00,
2013-04-28 10:40:00,67.1,28.7,30.25,North,356,0.0,10.6,24,0.00,,,0.00,VWS V14.00,2013-04-28 14:40:00,
2013-04-28 10:46:00,67.5,29.3,30.25,NNW,328,0.0,10.6,24,0.00,,,0.00,VWS V14.00,2013-04-28 14:46:00,
2013-04-28 10:52:00,67.9,28.9,30.25,NNE,14,4.6,10.6,23,0.00,,,0.00,VWS V14.00,2013-04-28 14:52:00,
2013-04-28 10:58:00,68.4,28.5,30.25,NNE,21,0.0,10.6,22,0.00,,,0.00,VWS V14.00,2013-04-28 14:58:00,
2013-04-28 11:04:00,69.1,28.4,30.25,NNW,335,4.3,10.6,22,0.00,,,0.00,VWS V14.00,2013-04-28 15:04:00,
2013-04-28 11:10:00,69.4,28.5,30.25,NNE,15,4.6,10.6,22,0.00,,,0.00,VWS V14.00,2013-04-28 15:10:00,
2013-04-28 11:16:00,70.0,26.9,30.25,NNW,338,0.0,10.6,20,0.00,,,0.00,VWS V14.00,2013-04-28 15:16:00,
2013-04-28 11:22:00,70.0,25.2,30.25,NW,314,3.4,10.6,18,0.00,,,0.00,VWS V14.00,2013-04-28 15:22:00,
2013-04-28 11:28:00,70.1,25.7,30.25,North,11,0.0,10.6,19,0.00,,,0.00,VWS V14.00,2013-04-28 15:28:00,
2013-04-28 11:34:00,70.5,25.5,30.24,NNE,24,7.5,10.6,18,0.00,,,0.00,VWS V14.00,2013-04-28 15:34:00,
2013-04-28 11:41:00,71.0,25.4,30.24,North,10,7.0,10.6,18,0.00,,,0.00,VWS V14.00,2013-04-28 15:41:00,
2013-04-28 11:47:00,71.0,23.0,30.24,WNW,297,0.0,10.6,16,0.00,,,0.00,VWS V14.00,2013-04-28 15:47:00,
2013-04-28 11:53:00,71.3,22.1,30.24,NW,312,0.0,10.6,16,0.00,,,0.00,VWS V14.00,2013-04-28 15:53:00,
2013-04-28 11:59:00,71.5,23.1,30.24,NNW,342,5.8,10.6,16,0.00,,,0.00,VWS V14.00,2013-04-28 15:59:00,
2013-04-28 12:05:00,71.9,23.6,30.24,North,354,5.4,10.6,16,0.00,,,0.00,VWS V14.00,2013-04-28 16:05:00,
2013-04-28 12:11:00,72.7,23.5,30.23,NNE,14,4.4,10.6,16,0.00,,,0.00,VWS V14.00,2013-04-28 16:11:00,
2013-04-28 12:17:00,73.2,21.0,30.23,NW,311,6.3,10.6,14,0.00,,,0.00,VWS V14.00,2013-04-28 16:17:00,
2013-04-28 12:23:00,73.2,20.3,30.23,NNW,343,4.5,10.6,14,0.00,,,0.00,VWS V14.00,2013-04-28 16:23:00,
2013-04-28 12:29:00,73.3,19.5,30.23,North,4,5.5,10.6,13,0.00,,,0.00,VWS V14.00,2013-04-28 16:29:00,
2013-04-28 12:35:00,73.7,20.7,30.23,NW,325,6.8,10.6,14,0.00,,,0.00,VWS V14.00,2013-04-28 16:35:00,
2013-04-28 12:41:00,73.4,17.5,30.23,NNW,335,4.1,10.6,12,0.00,,,0.00,VWS V14.00,2013-04-28 16:41:00,
2013-04-28 12:47:00,73.3,17.7,30.22,NNW,336,2.5,10.6,12,0.00,,,0.00,VWS V14.00,2013-04-28 16:47:00,
2013-04-28 12:53:00,73.7,19.7,30.22,North,352,0.0,10.6,13,0.00,,,0.00,VWS V14.00,2013-04-28 16:53:00,
2013-04-28 12:59:00,73.8,18.1,30.22,NW,322,0.0,10.6,12,0.00,,,0.00,VWS V14.00,2013-04-28 16:59:00,
2013-04-28 13:05:00,73.9,18.5,30.21,SE,138,0.0,10.6,12,0.00,,,0.00,VWS V14.00,2013-04-28 17:05:00,
2013-04-28 13:11:00,74.4,20.6,30.21,NNW,346,0.0,10.6,13,0.00,,,0.00,VWS V14.00,2013-04-28 17:11:00,
2013-04-28 13:17:00,74.9,19.5,30.21,NNE,21,3.1,10.6,12,0.00,,,0.00,VWS V14.00,2013-04-28 17:17:00,
2013-04-28 13:23:00,75.3,17.8,30.21,NW,314,0.0,10.6,11,0.00,,,0.00,VWS V14.00,2013-04-28 17:23:00,
2013-04-28 13:29:00,75.5,18.0,30.20,NNW,342,5.2,10.6,11,0.00,,,0.00,VWS V14.00,2013-04-28 17:29:00,
2013-04-28 13:35:00,75.8,18.2,30.20,North,359,0.0,10.6,11,0.00,,,0.00,VWS V14.00,2013-04-28 17:35:00,
2013-04-28 13:41:00,76.0,18.8,30.20,NW,319,4.2,10.6,12,0.00,,,0.00,VWS V14.00,2013-04-28 17:41:00,
2013-04-28 13:47:00,75.7,14.9,30.20,NW,316,0.0,10.6,10,0.00,,,0.00,VWS V14.00,2013-04-28 17:47:00,
2013-04-28 13:53:00,75.8,17.6,30.20,NW,326,4.4,10.6,11,0.00,,,0.00,VWS V14.00,2013-04-28 17:53:00,
2013-04-28 13:59:00,75.8,13.7,30.20,North,356,0.0,10.6,9,0.00,,,0.00,VWS V14.00,2013-04-28 17:59:00,
2013-04-28 14:05:00,75.4,14.9,30.19,NW,311,0.0,10.6,10,0.00,,,0.00,VWS V14.00,2013-04-28 18:05:00,
2013-04-28 14:11:00,75.9,15.5,30.19,NNE,28,5.5,10.6,10,0.00,,,0.00,VWS V14.00,2013-04-28 18:11:00,
2013-04-28 14:17:00,75.7,12.4,30.19,West,278,0.0,10.6,9,0.00,,,0.00,VWS V14.00,2013-04-28 18:17:00,
2013-04-28 14:23:00,75.8,14.5,30.19,NNW,339,5.8,10.6,10,0.00,,,0.00,VWS V14.00,2013-04-28 18:23:00,
2013-04-28 14:29:00,75.5,12.5,30.19,NW,323,5.8,10.6,9,0.00,,,0.00,VWS V14.00,2013-04-28 18:29:00,
2013-04-28 14:35:00,75.3,13.8,30.19,NNW,338,3.1,10.6,10,0.00,,,0.00,VWS V14.00,2013-04-28 18:35:00,
2013-04-28 14:41:00,75.7,15.3,30.18,NNW,345,5.3,10.6,10,0.00,,,0.00,VWS V14.00,2013-04-28 18:41:00,
2013-04-28 14:47:00,75.8,13.5,30.18,NNW,338,3.4,10.6,9,0.00,,,0.00,VWS V14.00,2013-04-28 18:47:00,
2013-04-28 14:54:00,75.9,13.3,30.17,NNE,28,0.0,10.6,9,0.00,,,0.00,VWS V14.00,2013-04-28 18:54:00,
2013-04-28 15:00:00,76.1,11.9,30.17,NW,309,5.6,10.6,8,0.00,,,0.00,VWS V14.00,2013-04-28 19:00:00,
2013-04-28 15:06:00,75.8,10.6,30.17,NNW,329,4.4,10.6,8,0.00,,,0.00,VWS V14.00,2013-04-28 19:06:00,
2013-04-28 15:12:00,76.1,12.7,30.16,NW,325,5.7,10.6,9,0.00,,,0.00,VWS V14.00,2013-04-28 19:12:00,
2013-04-28 15:18:00,76.2,11.7,30.16,NNE,18,3.0,10.6,8,0.00,,,0.00,VWS V14.00,2013-04-28 19:18:00,
2013-04-28 15:24:00,76.3,12.9,30.16,NW,323,7.3,10.6,9,0.00,,,0.00,VWS V14.00,2013-04-28 19:24:00,
2013-04-28 15:30:00,76.5,9.7,30.16,WNW,288,0.0,10.6,8,0.00,,,0.00,VWS V14.00,2013-04-28 19:30:00,
2013-04-28 15:36:00,76.8,12.4,30.15,NW,305,0.0,10.6,8,0.00,,,0.00,VWS V14.00,2013-04-28 19:36:00,
2013-04-28 15:42:00,77.1,10.2,30.15,NW,305,5.5,10.6,8,0.00,,,0.00,VWS V14.00,2013-04-28 19:42:00,
2013-04-28 15:48:00,76.8,8.1,30.15,NNW,330,7.3,10.6,7,0.00,,,0.00,VWS V14.00,2013-04-28 19:48:00,
2013-04-28 15:54:00,76.7,9.6,30.15,NNE,14,5.3,10.6,8,0.00,,,0.00,VWS V14.00,2013-04-28 19:54:00,
2013-04-28 16:00:00,76.5,8.5,30.15,NNW,329,5.6,10.6,7,0.00,,,0.00,VWS V14.00,2013-04-28 20:00:00,
2013-04-28 16:06:00,76.4,9.6,30.15,North,11,7.6,10.6,8,0.00,,,0.00,VWS V14.00,2013-04-28 20:06:00,
2013-04-28 16:12:00,76.6,10.4,30.15,NNW,340,0.0,10.6,8,0.00,,,0.00,VWS V14.00,2013-04-28 20:12:00,
2013-04-28 16:18:00,76.9,11.4,30.15,North,354,6.5,10.6,8,0.00,,,0.00,VWS V14.00,2013-04-28 20:18:00,
2013-04-28 16:24:00,77.2,11.1,30.15,North,349,6.1,10.6,8,0.00,,,0.00,VWS V14.00,2013-04-28 20:24:00,
2013-04-28 16:30:00,77.4,8.9,30.14,North,3,5.2,10.6,7,0.00,,,0.00,VWS V14.00,2013-04-28 20:30:00,
2013-04-28 16:36:00,77.8,11.6,30.14,NNE,13,6.3,10.6,8,0.00,,,0.00,VWS V14.00,2013-04-28 20:36:00,
2013-04-28 16:42:00,78.3,8.9,30.14,North,8,5.5,10.6,7,0.00,,,0.00,VWS V14.00,2013-04-28 20:42:00,
2013-04-28 16:48:00,79.0,10.0,30.14,NW,323,4.8,10.6,7,0.00,,,0.00,VWS V14.00,2013-04-28 20:48:00,
2013-04-28 16:54:00,80.0,9.1,30.14,NW,326,2.7,10.6,7,0.00,,,0.00,VWS V14.00,2013-04-28 20:54:00,
2013-04-28 17:00:00,80.9,9.1,30.14,NW,321,0.0,10.6,6,0.00,,,0.00,VWS V14.00,2013-04-28 21:00:00,
2013-04-28 17:06:00,82.5,8.8,30.14,NW,318,3.0,10.6,6,0.00,,,0.00,VWS V14.00,2013-04-28 21:06:00,
2013-04-28 17:12:00,83.4,8.3,30.14,West,278,0.0,10.6,6,0.00,,,0.00,VWS V14.00,2013-04-28 21:12:00,
2013-04-28 17:18:00,83.6,8.5,30.14,North,352,0.0,10.6,6,0.00,,,0.00,VWS V14.00,2013-04-28 21:18:00,
2013-04-28 17:24:00,85.2,9.2,30.14,NNE,14,5.5,10.6,6,0.00,,,0.00,VWS V14.00,2013-04-28 21:24:00,
2013-04-28 17:30:00,86.6,8.1,30.14,SW,215,3.4,10.6,5,0.00,,,0.00,VWS V14.00,2013-04-28 21:30:00,
2013-04-28 17:36:00,86.9,7.9,30.14,NNE,24,0.0,10.6,5,0.00,,,0.00,VWS V14.00,2013-04-28 21:36:00,
2013-04-28 17:42:00,85.8,7.6,30.14,NNW,335,4.8,10.6,5,0.00,,,0.00,VWS V14.00,2013-04-28 21:42:00,
2013-04-28 17:48:00,83.2,7.4,30.14,North,357,2.7,10.6,6,0.00,,,0.00,VWS V14.00,2013-04-28 21:48:00,
2013-04-28 17:54:00,80.5,7.0,30.14,NNW,332,0.0,10.6,6,0.00,,,0.00,VWS V14.00,2013-04-28 21:54:00,
2013-04-28 18:01:00,79.1,7.8,30.14,NNW,342,5.0,10.6,6,0.00,,,0.00,VWS V14.00,2013-04-28 22:01:00,
2013-04-28 18:07:00,78.3,7.9,30.14,NW,323,3.1,10.6,7,0.00,,,0.00,VWS V14.00,2013-04-28 22:07:00,
2013-04-28 18:13:00,78.5,8.4,30.14,NW,305,0.0,10.6,7,0.00,,,0.00,VWS V14.00,2013-04-28 22:13:00,
2013-04-28 18:19:00,78.1,8.7,30.13,NNW,338,0.0,10.6,7,0.00,,,0.00,VWS V14.00,2013-04-28 22:19:00,
2013-04-28 18:25:00,77.0,9.8,30.14,North,349,0.0,10.6,8,0.00,,,0.00,VWS V14.00,2013-04-28 22:25:00,
2013-04-28 18:31:00,76.4,11.9,30.13,North,8,0.0,10.6,8,0.00,,,0.00,VWS V14.00,2013-04-28 22:31:00,
2013-04-28 18:37:00,75.7,13.4,30.14,North,8,0.0,10.6,9,0.00,,,0.00,VWS V14.00,2013-04-28 22:37:00,
2013-04-28 18:43:00,75.0,15.2,30.14,North,8,0.0,10.6,10,0.00,,,0.00,VWS V14.00,2013-04-28 22:43:00,
2013-04-28 18:49:00,74.4,15.9,30.14,North,8,0.0,10.6,11,0.00,,,0.00,VWS V14.00,2013-04-28 22:49:00,
2013-04-28 18:55:00,74.0,16.4,30.14,North,8,0.0,10.6,11,0.00,,,0.00,VWS V14.00,2013-04-28 22:55:00,
2013-04-28 19:01:00,73.4,16.4,30.14,North,8,0.0,10.6,11,0.00,,,0.00,VWS V14.00,2013-04-28 23:01:00,
2013-04-28 19:07:00,72.6,16.7,30.14,North,8,0.0,10.6,12,0.00,,,0.00,VWS V14.00,2013-04-28 23:07:00,
2013-04-28 19:13:00,71.6,17.3,30.14,North,8,0.0,10.6,12,0.00,,,0.00,VWS V14.00,2013-04-28 23:13:00,
2013-04-28 19:19:00,70.7,18.2,30.13,North,8,0.0,10.6,13,0.00,,,0.00,VWS V14.00,2013-04-28 23:19:00,
2013-04-28 19:25:00,69.9,18.9,30.13,North,8,0.0,10.6,14,0.00,,,0.00,VWS V14.00,2013-04-28 23:25:00,
2013-04-28 19:31:00,69.2,19.3,30.13,North,8,0.0,10.6,15,0.00,,,0.00,VWS V14.00,2013-04-28 23:31:00,
2013-04-28 19:37:00,68.5,20.0,30.13,North,8,0.0,10.6,16,0.00,,,0.00,VWS V14.00,2013-04-28 23:37:00,
2013-04-28 19:43:00,68.0,21.3,30.13,North,8,0.0,10.6,17,0.00,,,0.00,VWS V14.00,2013-04-28 23:43:00,
2013-04-28 19:49:00,67.2,21.2,30.13,East,98,4.2,10.6,17,0.00,,,0.00,VWS V14.00,2013-04-28 23:49:00,
2013-04-28 19:55:00,66.7,21.6,30.13,ESE,121,4.8,10.6,18,0.00,,,0.00,VWS V14.00,2013-04-28 23:55:00,
2013-04-28 20:01:00,66.2,22.8,30.13,SE,127,3.3,10.6,19,0.00,,,0.00,VWS V14.00,2013-04-29 00:01:00,
2013-04-28 20:07:00,65.7,22.7,30.13,ESE,112,0.0,10.6,19,0.00,,,0.00,VWS V14.00,2013-04-29 00:07:00,
2013-04-28 20:13:00,65.1,23.3,30.13,East,98,3.2,10.6,20,0.00,,,0.00,VWS V14.00,2013-04-29 00:13:00,
2013-04-28 20:19:00,64.7,23.8,30.14,East,97,0.0,10.6,21,0.00,,,0.00,VWS V14.00,2013-04-29 00:19:00,
2013-04-28 20:25:00,64.2,23.9,30.14,ESE,111,6.0,10.6,21,0.00,,,0.00,VWS V14.00,2013-04-29 00:25:00,
2013-04-28 20:31:00,63.9,24.0,30.14,East,90,0.0,10.6,22,0.00,,,0.00,VWS V14.00,2013-04-29 00:31:00,
2013-04-28 20:37:00,63.9,24.7,30.14,ESE,105,3.5,10.6,22,0.00,,,0.00,VWS V14.00,2013-04-29 00:37:00,
2013-04-28 20:43:00,63.5,24.6,30.14,ESE,117,2.2,10.6,23,0.00,,,0.00,VWS V14.00,2013-04-29 00:43:00,
2013-04-28 20:49:00,63.2,25.0,30.14,SE,143,2.9,10.6,23,0.00,,,0.00,VWS V14.00,2013-04-29 00:49:00,
2013-04-28 20:55:00,63.1,25.0,30.14,SE,138,5.8,10.6,23,0.00,,,0.00,VWS V14.00,2013-04-29 00:55:00,
2013-04-28 21:01:00,62.8,25.1,30.15,ESE,112,5.0,10.6,24,0.00,,,0.00,VWS V14.00,2013-04-29 01:01:00,
2013-04-28 21:08:00,62.5,25.2,30.15,East,98,4.3,10.6,24,0.00,,,0.00,VWS V14.00,2013-04-29 01:08:00,
2013-04-28 21:14:00,62.3,25.8,30.15,SE,135,6.3,10.6,25,0.00,,,0.00,VWS V14.00,2013-04-29 01:14:00,
2013-04-28 21:20:00,62.0,25.8,30.15,SE,125,5.0,10.6,25,0.00,,,0.00,VWS V14.00,2013-04-29 01:20:00,
2013-04-28 21:26:00,62.1,26.4,30.15,East,96,0.0,10.6,26,0.00,,,0.00,VWS V14.00,2013-04-29 01:26:00,
2013-04-28 21:32:00,61.8,26.3,30.15,ENE,76,2.9,10.6,26,0.00,,,0.00,VWS V14.00,2013-04-29 01:32:00,
2013-04-28 21:38:00,61.7,26.5,30.15,SSE,150,4.3,10.6,26,0.00,,,0.00,VWS V14.00,2013-04-29 01:38:00,
2013-04-28 21:44:00,61.6,26.5,30.15,East,82,3.1,11.1,26,0.00,,,0.00,VWS V14.00,2013-04-29 01:44:00,
2013-04-28 21:50:00,61.5,27.0,30.15,ESE,121,4.3,11.1,27,0.00,,,0.00,VWS V14.00,2013-04-29 01:50:00,
2013-04-28 21:56:00,61.2,27.5,30.15,ESE,108,4.3,12.9,28,0.00,,,0.00,VWS V14.00,2013-04-29 01:56:00,
2013-04-28 22:02:00,61.1,28.0,30.15,ESE,104,2.9,12.9,28,0.00,,,0.00,VWS V14.00,2013-04-29 02:02:00,
2013-04-28 22:08:00,60.8,28.0,30.15,ESE,114,6.1,12.9,29,0.00,,,0.00,VWS V14.00,2013-04-29 02:08:00,
2013-04-28 22:14:00,60.7,28.4,30.15,ESE,105,5.2,12.9,29,0.00,,,0.00,VWS V14.00,2013-04-29 02:14:00,
2013-04-28 22:20:00,60.3,28.5,30.15,SE,127,1.7,12.9,30,0.00,,,0.00,VWS V14.00,2013-04-29 02:20:00,
2013-04-28 22:26:00,60.3,28.8,30.15,SSE,150,3.0,12.9,30,0.00,,,0.00,VWS V14.00,2013-04-29 02:26:00,
2013-04-28 22:32:00,60.1,28.8,30.15,ESE,111,3.3,12.9,30,0.00,,,0.00,VWS V14.00,2013-04-29 02:32:00,
2013-04-28 22:38:00,60.1,29.1,30.15,East,94,1.9,12.9,31,0.00,,,0.00,VWS V14.00,2013-04-29 02:38:00,
2013-04-28 22:44:00,59.8,29.0,30.15,ENE,73,3.0,12.9,31,0.00,,,0.00,VWS V14.00,2013-04-29 02:44:00,
2013-04-28 22:50:00,59.6,29.5,30.15,SE,145,5.6,12.9,32,0.00,,,0.00,VWS V14.00,2013-04-29 02:50:00,
2013-04-28 22:56:00,59.4,29.9,30.15,ESE,118,5.0,12.9,32,0.00,,,0.00,VWS V14.00,2013-04-29 02:56:00,
2013-04-28 23:02:00,59.4,30.5,30.16,SE,141,4.8,12.9,33,0.00,,,0.00,VWS V14.00,2013-04-29 03:02:00,
2013-04-28 23:08:00,59.1,30.5,30.16,SE,124,6.0,12.9,34,0.00,,,0.00,VWS V14.00,2013-04-29 03:08:00,
2013-04-28 23:14:00,59.0,30.8,30.16,South,190,3.5,12.9,34,0.00,,,0.00,VWS V14.00,2013-04-29 03:14:00,
2013-04-28 23:20:00,58.9,31.2,30.16,East,86,7.8,12.9,35,0.00,,,0.00,VWS V14.00,2013-04-29 03:20:00,
2013-04-28 23:26:00,58.7,31.6,30.16,SE,136,5.9,12.9,36,0.00,,,0.00,VWS V14.00,2013-04-29 03:26:00,
2013-04-28 23:32:00,58.6,32.0,30.16,SSE,148,4.3,12.9,36,0.00,,,0.00,VWS V14.00,2013-04-29 03:32:00,
2013-04-28 23:38:00,58.2,32.0,30.16,SE,141,5.9,12.9,37,0.00,,,0.00,VWS V14.00,2013-04-29 03:38:00,
2013-04-28 23:44:00,58.0,32.3,30.16,SSE,150,6.1,12.9,38,0.00,,,0.00,VWS V14.00,2013-04-29 03:44:00,
2013-04-28 23:50:00,57.9,32.5,30.16,SE,132,2.9,6.0,38,0.00,,,0.00,VWS V14.00,2013-04-29 03:50:00,
2013-04-28 23:56:00,57.7,32.5,30.16,SE,141,5.5,8.0,38,0.00,,,0.00,VWS V14.00,2013-04-29 03:56:00,